sensor_id;sensor_type;location;lat;lon;timestamp;temperature;humidity
52107;DHT22;38105;52.968;5.974;2023-07-22T00:01:36;14.50;99.90
52107;DHT22;38105;52.968;5.974;2023-07-22T00:04:02;14.50;99.90
52107;DHT22;38105;52.968;5.974;2023-07-22T00:06:28;14.40;99.90
52107;DHT22;38105;52.968;5.974;2023-07-22T00:08:54;14.40;99.90
52107;DHT22;38105;52.968;5.974;2023-07-22T00:11:19;14.30;99.90
52107;DHT22;38105;52.968;5.974;2023-07-22T00:13:45;14.30;99.90
52107;DHT22;38105;52.968;5.974;2023-07-22T00:16:11;14.30;99.90
52107;DHT22;38105;52.968;5.974;2023-07-22T00:18:36;14.30;99.90
52107;DHT22;38105;52.968;5.974;2023-07-22T00:21:02;14.30;99.90
52107;DHT22;38105;52.968;5.974;2023-07-22T00:23:27;14.20;99.90
52107;DHT22;38105;52.968;5.974;2023-07-22T00:25:53;14.10;99.90
52107;DHT22;38105;52.968;5.974;2023-07-22T00:28:19;14.10;99.90
52107;DHT22;38105;52.968;5.974;2023-07-22T00:30:44;14.00;99.90
52107;DHT22;38105;52.968;5.974;2023-07-22T00:33:10;14.00;99.90
52107;DHT22;38105;52.968;5.974;2023-07-22T00:35:36;14.00;99.90
52107;DHT22;38105;52.968;5.974;2023-07-22T00:38:02;14.00;99.90
52107;DHT22;38105;52.968;5.974;2023-07-22T00:40:27;13.80;99.90
52107;DHT22;38105;52.968;5.974;2023-07-22T00:42:55;13.80;99.90
52107;DHT22;38105;52.968;5.974;2023-07-22T00:45:21;13.80;99.90
52107;DHT22;38105;52.968;5.974;2023-07-22T00:47:46;13.80;99.90
52107;DHT22;38105;52.968;5.974;2023-07-22T00:50:12;13.70;99.90
52107;DHT22;38105;52.968;5.974;2023-07-22T00:52:38;13.70;99.90
52107;DHT22;38105;52.968;5.974;2023-07-22T00:55:04;13.60;99.90
52107;DHT22;38105;52.968;5.974;2023-07-22T00:57:30;13.60;99.90
52107;DHT22;38105;52.968;5.974;2023-07-22T00:59:55;13.50;99.90
52107;DHT22;38105;52.968;5.974;2023-07-22T01:02:21;13.50;99.90
52107;DHT22;38105;52.968;5.974;2023-07-22T01:04:47;13.40;99.90
52107;DHT22;38105;52.968;5.974;2023-07-22T01:07:13;13.40;99.90
52107;DHT22;38105;52.968;5.974;2023-07-22T01:09:40;13.20;99.90
52107;DHT22;38105;52.968;5.974;2023-07-22T01:12:06;13.20;99.90
52107;DHT22;38105;52.968;5.974;2023-07-22T01:14:41;13.20;99.90
52107;DHT22;38105;52.968;5.974;2023-07-22T01:17:10;13.20;99.90
52107;DHT22;38105;52.968;5.974;2023-07-22T01:19:36;13.00;99.90
52107;DHT22;38105;52.968;5.974;2023-07-22T01:22:03;13.10;99.90
52107;DHT22;38105;52.968;5.974;2023-07-22T01:24:29;13.00;99.90
52107;DHT22;38105;52.968;5.974;2023-07-22T01:26:57;12.90;99.90
52107;DHT22;38105;52.968;5.974;2023-07-22T01:29:23;12.90;99.90
52107;DHT22;38105;52.968;5.974;2023-07-22T01:31:50;12.80;99.90
52107;DHT22;38105;52.968;5.974;2023-07-22T01:34:16;12.80;99.90
52107;DHT22;38105;52.968;5.974;2023-07-22T01:36:42;12.90;99.90
52107;DHT22;38105;52.968;5.974;2023-07-22T01:39:08;12.70;99.90
52107;DHT22;38105;52.968;5.974;2023-07-22T01:41:34;12.80;99.90
52107;DHT22;38105;52.968;5.974;2023-07-22T01:43:59;12.70;99.90
52107;DHT22;38105;52.968;5.974;2023-07-22T01:46:25;12.60;99.90
52107;DHT22;38105;52.968;5.974;2023-07-22T01:48:50;12.60;99.90
52107;DHT22;38105;52.968;5.974;2023-07-22T01:51:16;12.60;99.90
52107;DHT22;38105;52.968;5.974;2023-07-22T01:53:41;12.60;99.90
52107;DHT22;38105;52.968;5.974;2023-07-22T01:56:07;12.60;99.90
52107;DHT22;38105;52.968;5.974;2023-07-22T01:58:33;12.60;99.90
52107;DHT22;38105;52.968;5.974;2023-07-22T02:00:58;12.50;99.90
52107;DHT22;38105;52.968;5.974;2023-07-22T02:03:24;12.60;99.90
52107;DHT22;38105;52.968;5.974;2023-07-22T02:05:50;12.50;99.90
52107;DHT22;38105;52.968;5.974;2023-07-22T02:08:15;12.60;99.90
52107;DHT22;38105;52.968;5.974;2023-07-22T02:10:41;12.50;99.90
52107;DHT22;38105;52.968;5.974;2023-07-22T02:13:07;12.50;99.90
52107;DHT22;38105;52.968;5.974;2023-07-22T02:15:32;12.50;99.90
52107;DHT22;38105;52.968;5.974;2023-07-22T02:17:58;12.60;99.90
52107;DHT22;38105;52.968;5.974;2023-07-22T02:20:24;12.60;99.90
52107;DHT22;38105;52.968;5.974;2023-07-22T02:22:52;12.60;99.90
52107;DHT22;38105;52.968;5.974;2023-07-22T02:25:17;12.50;99.90
52107;DHT22;38105;52.968;5.974;2023-07-22T02:27:43;12.60;99.90
52107;DHT22;38105;52.968;5.974;2023-07-22T02:30:09;12.50;99.90
52107;DHT22;38105;52.968;5.974;2023-07-22T02:32:38;12.50;99.90
52107;DHT22;38105;52.968;5.974;2023-07-22T02:35:05;12.50;99.90
52107;DHT22;38105;52.968;5.974;2023-07-22T02:37:30;12.60;99.90
52107;DHT22;38105;52.968;5.974;2023-07-22T02:39:56;12.60;99.90
52107;DHT22;38105;52.968;5.974;2023-07-22T02:42:21;12.60;99.90
52107;DHT22;38105;52.968;5.974;2023-07-22T02:44:47;12.60;99.90
52107;DHT22;38105;52.968;5.974;2023-07-22T02:47:13;12.70;99.90
52107;DHT22;38105;52.968;5.974;2023-07-22T02:49:39;12.70;99.90
52107;DHT22;38105;52.968;5.974;2023-07-22T02:52:05;12.70;99.90
52107;DHT22;38105;52.968;5.974;2023-07-22T02:54:37;12.80;99.90
52107;DHT22;38105;52.968;5.974;2023-07-22T02:57:02;12.80;99.90
52107;DHT22;38105;52.968;5.974;2023-07-22T02:59:29;12.90;99.90
52107;DHT22;38105;52.968;5.974;2023-07-22T03:01:54;12.80;99.90
52107;DHT22;38105;52.968;5.974;2023-07-22T03:04:20;12.90;99.90
52107;DHT22;38105;52.968;5.974;2023-07-22T03:06:46;13.00;99.90
52107;DHT22;38105;52.968;5.974;2023-07-22T03:09:11;13.00;99.90
52107;DHT22;38105;52.968;5.974;2023-07-22T03:11:37;13.10;99.90
52107;DHT22;38105;52.968;5.974;2023-07-22T03:14:02;13.00;99.90
52107;DHT22;38105;52.968;5.974;2023-07-22T03:16:28;13.10;99.90
52107;DHT22;38105;52.968;5.974;2023-07-22T03:18:54;13.10;99.90
52107;DHT22;38105;52.968;5.974;2023-07-22T03:21:20;13.00;99.90
52107;DHT22;38105;52.968;5.974;2023-07-22T03:23:46;13.20;99.90
52107;DHT22;38105;52.968;5.974;2023-07-22T03:26:11;13.30;99.90
52107;DHT22;38105;52.968;5.974;2023-07-22T03:28:37;13.20;99.90
52107;DHT22;38105;52.968;5.974;2023-07-22T03:31:02;13.20;99.90
52107;DHT22;38105;52.968;5.974;2023-07-22T03:33:29;13.20;99.90
52107;DHT22;38105;52.968;5.974;2023-07-22T03:35:55;13.20;99.90
52107;DHT22;38105;52.968;5.974;2023-07-22T03:38:20;13.30;99.90
52107;DHT22;38105;52.968;5.974;2023-07-22T03:40:46;13.40;99.90
52107;DHT22;38105;52.968;5.974;2023-07-22T03:43:12;13.40;99.90
52107;DHT22;38105;52.968;5.974;2023-07-22T03:45:38;13.50;99.90
52107;DHT22;38105;52.968;5.974;2023-07-22T03:48:04;13.40;99.90
52107;DHT22;38105;52.968;5.974;2023-07-22T03:50:30;13.50;99.90
52107;DHT22;38105;52.968;5.974;2023-07-22T03:52:55;13.40;99.90
52107;DHT22;38105;52.968;5.974;2023-07-22T03:55:21;13.30;99.90
52107;DHT22;38105;52.968;5.974;2023-07-22T03:57:46;13.50;99.90
52107;DHT22;38105;52.968;5.974;2023-07-22T04:00:12;13.50;99.90
52107;DHT22;38105;52.968;5.974;2023-07-22T04:02:38;13.40;99.90
52107;DHT22;38105;52.968;5.974;2023-07-22T04:05:04;13.50;99.90
52107;DHT22;38105;52.968;5.974;2023-07-22T04:07:29;13.60;99.90
52107;DHT22;38105;52.968;5.974;2023-07-22T04:09:55;13.60;99.90
52107;DHT22;38105;52.968;5.974;2023-07-22T04:12:20;13.60;99.90
52107;DHT22;38105;52.968;5.974;2023-07-22T04:14:46;13.60;99.90
52107;DHT22;38105;52.968;5.974;2023-07-22T04:17:12;13.70;99.90
52107;DHT22;38105;52.968;5.974;2023-07-22T04:19:37;13.80;99.90
52107;DHT22;38105;52.968;5.974;2023-07-22T04:22:04;13.70;99.90
52107;DHT22;38105;52.968;5.974;2023-07-22T04:24:32;13.80;99.90
52107;DHT22;38105;52.968;5.974;2023-07-22T04:26:58;13.70;99.90
52107;DHT22;38105;52.968;5.974;2023-07-22T04:29:23;13.60;99.90
52107;DHT22;38105;52.968;5.974;2023-07-22T04:31:49;13.70;99.90
52107;DHT22;38105;52.968;5.974;2023-07-22T04:34:15;13.80;99.90
52107;DHT22;38105;52.968;5.974;2023-07-22T04:36:40;13.70;99.90
52107;DHT22;38105;52.968;5.974;2023-07-22T04:39:06;13.60;99.90
52107;DHT22;38105;52.968;5.974;2023-07-22T04:41:32;13.50;99.90
52107;DHT22;38105;52.968;5.974;2023-07-22T04:43:58;13.60;99.90
52107;DHT22;38105;52.968;5.974;2023-07-22T04:46:24;13.50;99.90
52107;DHT22;38105;52.968;5.974;2023-07-22T04:48:53;13.50;99.90
52107;DHT22;38105;52.968;5.974;2023-07-22T04:51:18;13.60;99.90
52107;DHT22;38105;52.968;5.974;2023-07-22T04:53:44;13.40;99.90
52107;DHT22;38105;52.968;5.974;2023-07-22T04:56:09;13.50;99.90
52107;DHT22;38105;52.968;5.974;2023-07-22T04:58:35;13.50;99.90
52107;DHT22;38105;52.968;5.974;2023-07-22T05:01:01;13.40;99.90
52107;DHT22;38105;52.968;5.974;2023-07-22T05:03:26;13.50;99.90
52107;DHT22;38105;52.968;5.974;2023-07-22T05:05:55;13.70;99.90
52107;DHT22;38105;52.968;5.974;2023-07-22T05:08:23;13.60;99.90
52107;DHT22;38105;52.968;5.974;2023-07-22T05:10:48;13.80;99.90
52107;DHT22;38105;52.968;5.974;2023-07-22T05:13:14;14.10;99.90
52107;DHT22;38105;52.968;5.974;2023-07-22T05:15:40;14.30;99.90
52107;DHT22;38105;52.968;5.974;2023-07-22T05:18:05;14.60;99.90
52107;DHT22;38105;52.968;5.974;2023-07-22T05:20:31;14.90;99.90
52107;DHT22;38105;52.968;5.974;2023-07-22T05:22:57;14.80;99.90
52107;DHT22;38105;52.968;5.974;2023-07-22T05:25:23;14.80;99.90
52107;DHT22;38105;52.968;5.974;2023-07-22T05:27:49;14.90;99.90
52107;DHT22;38105;52.968;5.974;2023-07-22T05:30:17;14.70;99.90
52107;DHT22;38105;52.968;5.974;2023-07-22T05:32:43;14.90;99.90
52107;DHT22;38105;52.968;5.974;2023-07-22T05:35:08;14.90;99.90
52107;DHT22;38105;52.968;5.974;2023-07-22T05:37:34;14.80;99.90
52107;DHT22;38105;52.968;5.974;2023-07-22T05:39:59;14.90;99.90
52107;DHT22;38105;52.968;5.974;2023-07-22T05:42:26;14.90;99.90
52107;DHT22;38105;52.968;5.974;2023-07-22T05:44:57;14.80;99.90
52107;DHT22;38105;52.968;5.974;2023-07-22T05:47:22;15.00;99.90
52107;DHT22;38105;52.968;5.974;2023-07-22T05:49:48;15.00;99.90
52107;DHT22;38105;52.968;5.974;2023-07-22T05:52:13;15.10;99.90
52107;DHT22;38105;52.968;5.974;2023-07-22T05:54:39;15.00;99.90
52107;DHT22;38105;52.968;5.974;2023-07-22T05:57:05;15.20;99.90
52107;DHT22;38105;52.968;5.974;2023-07-22T05:59:31;15.30;99.90
52107;DHT22;38105;52.968;5.974;2023-07-22T06:01:56;15.30;99.90
52107;DHT22;38105;52.968;5.974;2023-07-22T06:04:22;15.30;99.90
52107;DHT22;38105;52.968;5.974;2023-07-22T06:06:47;15.50;99.90
52107;DHT22;38105;52.968;5.974;2023-07-22T06:09:13;15.80;99.90
52107;DHT22;38105;52.968;5.974;2023-07-22T06:11:38;16.30;99.90
52107;DHT22;38105;52.968;5.974;2023-07-22T06:14:04;16.90;99.90
52107;DHT22;38105;52.968;5.974;2023-07-22T06:16:29;17.10;99.90
52107;DHT22;38105;52.968;5.974;2023-07-22T06:18:55;17.00;99.90
52107;DHT22;38105;52.968;5.974;2023-07-22T06:21:20;16.80;99.90
52107;DHT22;38105;52.968;5.974;2023-07-22T06:23:46;16.40;99.90
52107;DHT22;38105;52.968;5.974;2023-07-22T06:26:11;16.30;99.90
52107;DHT22;38105;52.968;5.974;2023-07-22T06:28:37;16.20;99.90
52107;DHT22;38105;52.968;5.974;2023-07-22T06:31:02;16.20;99.90
52107;DHT22;38105;52.968;5.974;2023-07-22T06:33:28;16.40;99.90
52107;DHT22;38105;52.968;5.974;2023-07-22T06:35:58;16.20;99.90
52107;DHT22;38105;52.968;5.974;2023-07-22T06:38:23;16.40;99.90
52107;DHT22;38105;52.968;5.974;2023-07-22T06:40:49;16.30;99.90
52107;DHT22;38105;52.968;5.974;2023-07-22T06:43:17;16.10;99.90
52107;DHT22;38105;52.968;5.974;2023-07-22T06:45:42;16.40;99.90
52107;DHT22;38105;52.968;5.974;2023-07-22T06:48:08;16.20;99.90
52107;DHT22;38105;52.968;5.974;2023-07-22T06:50:33;16.30;99.90
52107;DHT22;38105;52.968;5.974;2023-07-22T06:52:59;16.40;99.90
52107;DHT22;38105;52.968;5.974;2023-07-22T06:55:24;16.40;99.90
52107;DHT22;38105;52.968;5.974;2023-07-22T06:57:50;16.50;99.90
52107;DHT22;38105;52.968;5.974;2023-07-22T07:00:16;16.90;99.90
52107;DHT22;38105;52.968;5.974;2023-07-22T07:02:41;17.10;99.90
52107;DHT22;38105;52.968;5.974;2023-07-22T07:05:07;17.00;99.90
52107;DHT22;38105;52.968;5.974;2023-07-22T07:07:33;17.20;99.90
52107;DHT22;38105;52.968;5.974;2023-07-22T07:09:58;17.30;99.90
52107;DHT22;38105;52.968;5.974;2023-07-22T07:12:24;17.70;99.90
52107;DHT22;38105;52.968;5.974;2023-07-22T07:14:50;18.10;99.90
52107;DHT22;38105;52.968;5.974;2023-07-22T07:17:18;18.20;99.90
52107;DHT22;38105;52.968;5.974;2023-07-22T07:19:44;18.30;99.90
52107;DHT22;38105;52.968;5.974;2023-07-22T07:22:10;18.40;99.90
52107;DHT22;38105;52.968;5.974;2023-07-22T07:24:35;18.30;99.90
52107;DHT22;38105;52.968;5.974;2023-07-22T07:27:01;18.40;99.90
52107;DHT22;38105;52.968;5.974;2023-07-22T07:29:27;18.40;99.90
52107;DHT22;38105;52.968;5.974;2023-07-22T07:31:53;18.30;99.90
52107;DHT22;38105;52.968;5.974;2023-07-22T07:34:18;18.10;99.90
52107;DHT22;38105;52.968;5.974;2023-07-22T07:36:44;18.10;99.90
52107;DHT22;38105;52.968;5.974;2023-07-22T07:39:09;17.80;99.90
52107;DHT22;38105;52.968;5.974;2023-07-22T07:41:35;17.80;99.90
52107;DHT22;38105;52.968;5.974;2023-07-22T07:44:00;17.90;99.90
52107;DHT22;38105;52.968;5.974;2023-07-22T07:46:26;17.90;99.90
52107;DHT22;38105;52.968;5.974;2023-07-22T07:48:53;17.90;99.90
52107;DHT22;38105;52.968;5.974;2023-07-22T07:51:19;18.30;99.90
52107;DHT22;38105;52.968;5.974;2023-07-22T07:53:45;18.20;99.90
52107;DHT22;38105;52.968;5.974;2023-07-22T07:56:12;18.20;99.90
52107;DHT22;38105;52.968;5.974;2023-07-22T07:58:38;18.40;99.90
52107;DHT22;38105;52.968;5.974;2023-07-22T08:01:04;18.40;99.90
52107;DHT22;38105;52.968;5.974;2023-07-22T08:03:30;18.10;99.90
52107;DHT22;38105;52.968;5.974;2023-07-22T08:05:56;18.00;99.90
52107;DHT22;38105;52.968;5.974;2023-07-22T08:08:22;17.90;99.90
52107;DHT22;38105;52.968;5.974;2023-07-22T08:10:47;17.90;99.90
52107;DHT22;38105;52.968;5.974;2023-07-22T08:13:13;17.70;99.90
52107;DHT22;38105;52.968;5.974;2023-07-22T08:15:39;17.70;99.90
52107;DHT22;38105;52.968;5.974;2023-07-22T08:18:07;17.30;99.90
52107;DHT22;38105;52.968;5.974;2023-07-22T08:20:32;17.30;99.90
52107;DHT22;38105;52.968;5.974;2023-07-22T08:22:58;17.10;99.90
52107;DHT22;38105;52.968;5.974;2023-07-22T08:25:23;16.90;99.90
52107;DHT22;38105;52.968;5.974;2023-07-22T08:27:49;16.80;99.90
52107;DHT22;38105;52.968;5.974;2023-07-22T08:30:14;16.40;99.90
52107;DHT22;38105;52.968;5.974;2023-07-22T08:32:40;16.40;99.90
52107;DHT22;38105;52.968;5.974;2023-07-22T08:35:06;16.40;99.90
52107;DHT22;38105;52.968;5.974;2023-07-22T08:37:32;16.40;99.90
52107;DHT22;38105;52.968;5.974;2023-07-22T08:39:58;16.40;99.90
52107;DHT22;38105;52.968;5.974;2023-07-22T08:42:23;16.40;99.90
52107;DHT22;38105;52.968;5.974;2023-07-22T08:44:51;16.40;99.90
52107;DHT22;38105;52.968;5.974;2023-07-22T08:47:21;16.30;99.90
52107;DHT22;38105;52.968;5.974;2023-07-22T08:49:51;16.50;99.90
52107;DHT22;38105;52.968;5.974;2023-07-22T08:52:17;16.40;99.90
52107;DHT22;38105;52.968;5.974;2023-07-22T08:54:43;16.70;99.90
52107;DHT22;38105;52.968;5.974;2023-07-22T08:57:09;16.60;99.90
52107;DHT22;38105;52.968;5.974;2023-07-22T08:59:34;16.50;99.90
52107;DHT22;38105;52.968;5.974;2023-07-22T09:02:00;16.70;99.90
52107;DHT22;38105;52.968;5.974;2023-07-22T09:04:26;16.80;99.90
52107;DHT22;38105;52.968;5.974;2023-07-22T09:06:52;16.70;99.90
52107;DHT22;38105;52.968;5.974;2023-07-22T09:09:18;16.60;99.90
52107;DHT22;38105;52.968;5.974;2023-07-22T09:11:44;16.80;99.90
52107;DHT22;38105;52.968;5.974;2023-07-22T09:14:10;16.80;99.90
52107;DHT22;38105;52.968;5.974;2023-07-22T09:16:36;16.90;99.90
52107;DHT22;38105;52.968;5.974;2023-07-22T09:19:03;16.80;99.90
52107;DHT22;38105;52.968;5.974;2023-07-22T09:21:28;16.80;99.90
52107;DHT22;38105;52.968;5.974;2023-07-22T09:23:54;17.00;99.90
52107;DHT22;38105;52.968;5.974;2023-07-22T09:26:20;16.90;99.90
52107;DHT22;38105;52.968;5.974;2023-07-22T09:28:58;17.00;99.90
52107;DHT22;38105;52.968;5.974;2023-07-22T09:31:25;16.90;99.90
52107;DHT22;38105;52.968;5.974;2023-07-22T09:33:51;17.00;99.90
52107;DHT22;38105;52.968;5.974;2023-07-22T09:36:19;17.00;99.90
52107;DHT22;38105;52.968;5.974;2023-07-22T09:38:45;17.00;99.90
52107;DHT22;38105;52.968;5.974;2023-07-22T09:41:10;16.90;99.90
52107;DHT22;38105;52.968;5.974;2023-07-22T09:43:37;16.90;99.90
52107;DHT22;38105;52.968;5.974;2023-07-22T09:46:07;16.80;99.90
52107;DHT22;38105;52.968;5.974;2023-07-22T09:48:40;16.80;99.90
52107;DHT22;38105;52.968;5.974;2023-07-22T09:51:10;16.70;99.90
52107;DHT22;38105;52.968;5.974;2023-07-22T09:53:36;16.90;99.90
52107;DHT22;38105;52.968;5.974;2023-07-22T09:56:05;16.80;99.90
52107;DHT22;38105;52.968;5.974;2023-07-22T09:58:30;16.80;99.90
52107;DHT22;38105;52.968;5.974;2023-07-22T10:00:56;16.90;99.90
52107;DHT22;38105;52.968;5.974;2023-07-22T10:03:22;16.70;99.90
52107;DHT22;38105;52.968;5.974;2023-07-22T10:05:49;16.70;99.90
52107;DHT22;38105;52.968;5.974;2023-07-22T10:08:15;16.70;99.90
52107;DHT22;38105;52.968;5.974;2023-07-22T10:10:43;16.80;99.90
52107;DHT22;38105;52.968;5.974;2023-07-22T10:13:09;16.80;99.90
52107;DHT22;38105;52.968;5.974;2023-07-22T10:15:36;16.80;99.90
52107;DHT22;38105;52.968;5.974;2023-07-22T10:18:02;16.70;99.90
52107;DHT22;38105;52.968;5.974;2023-07-22T10:20:28;16.70;99.90
52107;DHT22;38105;52.968;5.974;2023-07-22T10:22:54;16.70;99.90
52107;DHT22;38105;52.968;5.974;2023-07-22T10:25:20;16.70;99.90
52107;DHT22;38105;52.968;5.974;2023-07-22T10:27:49;16.60;99.90
52107;DHT22;38105;52.968;5.974;2023-07-22T10:30:16;16.60;99.90
52107;DHT22;38105;52.968;5.974;2023-07-22T10:32:43;16.70;99.90
52107;DHT22;38105;52.968;5.974;2023-07-22T10:35:09;16.60;99.90
52107;DHT22;38105;52.968;5.974;2023-07-22T10:37:36;16.50;99.90
52107;DHT22;38105;52.968;5.974;2023-07-22T10:43:00;16.60;99.90
52107;DHT22;38105;52.968;5.974;2023-07-22T10:45:26;16.50;99.90
52107;DHT22;38105;52.968;5.974;2023-07-22T10:48:03;16.40;99.90
52107;DHT22;38105;52.968;5.974;2023-07-22T10:53:06;16.50;99.90
52107;DHT22;38105;52.968;5.974;2023-07-22T10:55:32;16.40;99.90
52107;DHT22;38105;52.968;5.974;2023-07-22T10:58:01;16.40;99.90
52107;DHT22;38105;52.968;5.974;2023-07-22T11:00:29;16.40;99.90
52107;DHT22;38105;52.968;5.974;2023-07-22T11:03:10;16.70;99.90
52107;DHT22;38105;52.968;5.974;2023-07-22T11:08:15;16.70;99.90
52107;DHT22;38105;52.968;5.974;2023-07-22T11:10:51;16.50;99.90
52107;DHT22;38105;52.968;5.974;2023-07-22T11:13:17;16.60;99.90
52107;DHT22;38105;52.968;5.974;2023-07-22T11:15:47;16.40;99.90
52107;DHT22;38105;52.968;5.974;2023-07-22T11:18:12;16.40;99.90
52107;DHT22;38105;52.968;5.974;2023-07-22T11:20:38;16.40;99.90
52107;DHT22;38105;52.968;5.974;2023-07-22T11:23:03;16.50;99.90
52107;DHT22;38105;52.968;5.974;2023-07-22T11:25:29;16.40;99.90
52107;DHT22;38105;52.968;5.974;2023-07-22T11:27:58;16.60;99.90
52107;DHT22;38105;52.968;5.974;2023-07-22T11:30:24;16.30;99.90
52107;DHT22;38105;52.968;5.974;2023-07-22T11:32:49;16.30;99.90
52107;DHT22;38105;52.968;5.974;2023-07-22T11:35:15;16.40;99.90
52107;DHT22;38105;52.968;5.974;2023-07-22T11:37:41;16.30;99.90
52107;DHT22;38105;52.968;5.974;2023-07-22T11:40:10;16.40;99.90
52107;DHT22;38105;52.968;5.974;2023-07-22T11:42:36;16.30;99.90
52107;DHT22;38105;52.968;5.974;2023-07-22T11:45:03;16.40;99.90
52107;DHT22;38105;52.968;5.974;2023-07-22T11:47:29;16.30;99.90
52107;DHT22;38105;52.968;5.974;2023-07-22T11:49:57;16.10;99.90
52107;DHT22;38105;52.968;5.974;2023-07-22T11:52:23;16.30;99.90
52107;DHT22;38105;52.968;5.974;2023-07-22T11:54:51;16.10;99.90
52107;DHT22;38105;52.968;5.974;2023-07-22T12:02:15;16.40;99.90
52107;DHT22;38105;52.968;5.974;2023-07-22T12:04:42;16.10;99.90
52107;DHT22;38105;52.968;5.974;2023-07-22T12:07:21;16.20;99.90
52107;DHT22;38105;52.968;5.974;2023-07-22T12:09:50;16.40;99.90
52107;DHT22;38105;52.968;5.974;2023-07-22T12:12:16;16.50;99.90
52107;DHT22;38105;52.968;5.974;2023-07-22T12:14:41;16.40;99.90
52107;DHT22;38105;52.968;5.974;2023-07-22T12:17:10;16.40;99.90
52107;DHT22;38105;52.968;5.974;2023-07-22T12:19:36;16.80;99.90
52107;DHT22;38105;52.968;5.974;2023-07-22T12:22:01;16.90;99.90
52107;DHT22;38105;52.968;5.974;2023-07-22T12:24:27;16.90;99.90
52107;DHT22;38105;52.968;5.974;2023-07-22T12:26:53;17.00;99.90
52107;DHT22;38105;52.968;5.974;2023-07-22T12:29:19;17.00;99.90
52107;DHT22;38105;52.968;5.974;2023-07-22T12:31:45;17.20;99.90
52107;DHT22;38105;52.968;5.974;2023-07-22T12:34:11;17.10;99.90
52107;DHT22;38105;52.968;5.974;2023-07-22T12:36:36;17.50;99.90
52107;DHT22;38105;52.968;5.974;2023-07-22T12:39:02;17.30;99.90
52107;DHT22;38105;52.968;5.974;2023-07-22T12:41:28;17.30;99.90
52107;DHT22;38105;52.968;5.974;2023-07-22T12:43:54;17.50;99.90
52107;DHT22;38105;52.968;5.974;2023-07-22T12:46:19;17.50;99.90
52107;DHT22;38105;52.968;5.974;2023-07-22T12:48:45;17.50;99.90
52107;DHT22;38105;52.968;5.974;2023-07-22T12:51:11;17.60;99.90
52107;DHT22;38105;52.968;5.974;2023-07-22T12:53:36;17.90;99.90
52107;DHT22;38105;52.968;5.974;2023-07-22T12:56:02;18.20;99.90
52107;DHT22;38105;52.968;5.974;2023-07-22T12:58:28;18.40;99.90
52107;DHT22;38105;52.968;5.974;2023-07-22T13:00:56;18.50;99.90
52107;DHT22;38105;52.968;5.974;2023-07-22T13:03:25;18.60;99.90
52107;DHT22;38105;52.968;5.974;2023-07-22T13:05:51;18.50;99.90
52107;DHT22;38105;52.968;5.974;2023-07-22T13:08:16;18.50;99.90
52107;DHT22;38105;52.968;5.974;2023-07-22T13:10:42;18.50;99.90
52107;DHT22;38105;52.968;5.974;2023-07-22T13:13:10;18.50;99.90
52107;DHT22;38105;52.968;5.974;2023-07-22T13:15:35;18.60;99.90
52107;DHT22;38105;52.968;5.974;2023-07-22T13:18:01;18.60;99.90
52107;DHT22;38105;52.968;5.974;2023-07-22T13:20:28;18.60;99.90
52107;DHT22;38105;52.968;5.974;2023-07-22T13:22:54;18.80;99.90
52107;DHT22;38105;52.968;5.974;2023-07-22T13:25:20;19.00;99.90
52107;DHT22;38105;52.968;5.974;2023-07-22T13:27:45;19.10;99.90
52107;DHT22;38105;52.968;5.974;2023-07-22T13:30:11;19.30;99.90
52107;DHT22;38105;52.968;5.974;2023-07-22T13:32:36;19.60;99.90
52107;DHT22;38105;52.968;5.974;2023-07-22T13:35:02;19.70;99.90
52107;DHT22;38105;52.968;5.974;2023-07-22T13:37:29;19.90;99.90
52107;DHT22;38105;52.968;5.974;2023-07-22T13:39:55;19.70;99.90
52107;DHT22;38105;52.968;5.974;2023-07-22T13:42:23;19.80;99.90
52107;DHT22;38105;52.968;5.974;2023-07-22T13:44:49;19.80;99.90
52107;DHT22;38105;52.968;5.974;2023-07-22T13:47:14;19.70;99.90
52107;DHT22;38105;52.968;5.974;2023-07-22T13:49:40;19.60;99.90
52107;DHT22;38105;52.968;5.974;2023-07-22T13:52:05;19.60;99.90
52107;DHT22;38105;52.968;5.974;2023-07-22T13:54:31;19.70;99.90
52107;DHT22;38105;52.968;5.974;2023-07-22T13:56:56;19.70;99.90
52107;DHT22;38105;52.968;5.974;2023-07-22T13:59:22;19.70;99.90
52107;DHT22;38105;52.968;5.974;2023-07-22T14:01:48;19.70;99.90
52107;DHT22;38105;52.968;5.974;2023-07-22T14:04:13;19.50;99.90
52107;DHT22;38105;52.968;5.974;2023-07-22T14:06:41;19.50;99.90
52107;DHT22;38105;52.968;5.974;2023-07-22T14:09:07;19.60;99.90
52107;DHT22;38105;52.968;5.974;2023-07-22T14:11:32;19.50;99.90
52107;DHT22;38105;52.968;5.974;2023-07-22T14:13:58;19.40;99.90
52107;DHT22;38105;52.968;5.974;2023-07-22T14:16:23;19.30;99.90
52107;DHT22;38105;52.968;5.974;2023-07-22T14:18:49;19.40;99.90
52107;DHT22;38105;52.968;5.974;2023-07-22T14:21:17;19.40;99.90
52107;DHT22;38105;52.968;5.974;2023-07-22T14:23:42;19.20;99.90
52107;DHT22;38105;52.968;5.974;2023-07-22T14:26:09;19.30;99.90
52107;DHT22;38105;52.968;5.974;2023-07-22T14:28:34;19.10;99.90
52107;DHT22;38105;52.968;5.974;2023-07-22T14:31:00;19.10;99.90
52107;DHT22;38105;52.968;5.974;2023-07-22T14:33:25;18.90;99.90
52107;DHT22;38105;52.968;5.974;2023-07-22T14:35:51;18.90;99.90
52107;DHT22;38105;52.968;5.974;2023-07-22T14:38:16;18.60;99.90
52107;DHT22;38105;52.968;5.974;2023-07-22T14:40:42;18.70;99.90
52107;DHT22;38105;52.968;5.974;2023-07-22T14:43:08;18.60;99.90
52107;DHT22;38105;52.968;5.974;2023-07-22T14:45:33;18.40;99.90
52107;DHT22;38105;52.968;5.974;2023-07-22T14:47:59;18.50;99.90
52107;DHT22;38105;52.968;5.974;2023-07-22T14:50:24;18.50;99.90
52107;DHT22;38105;52.968;5.974;2023-07-22T14:52:50;18.40;99.90
52107;DHT22;38105;52.968;5.974;2023-07-22T14:55:15;18.20;99.90
52107;DHT22;38105;52.968;5.974;2023-07-22T14:57:41;18.20;99.90
52107;DHT22;38105;52.968;5.974;2023-07-22T15:00:09;18.20;99.90
52107;DHT22;38105;52.968;5.974;2023-07-22T15:02:38;18.10;99.90
52107;DHT22;38105;52.968;5.974;2023-07-22T15:05:04;18.20;99.90
52107;DHT22;38105;52.968;5.974;2023-07-22T15:07:29;18.10;99.90
52107;DHT22;38105;52.968;5.974;2023-07-22T15:09:57;18.10;99.90
52107;DHT22;38105;52.968;5.974;2023-07-22T15:12:22;18.10;99.90
52107;DHT22;38105;52.968;5.974;2023-07-22T15:14:48;18.10;99.90
52107;DHT22;38105;52.968;5.974;2023-07-22T15:17:14;18.20;99.90
52107;DHT22;38105;52.968;5.974;2023-07-22T15:19:39;18.10;99.90
52107;DHT22;38105;52.968;5.974;2023-07-22T15:22:05;18.10;99.90
52107;DHT22;38105;52.968;5.974;2023-07-22T15:24:31;17.90;99.90
52107;DHT22;38105;52.968;5.974;2023-07-22T15:26:56;18.00;99.90
52107;DHT22;38105;52.968;5.974;2023-07-22T15:29:22;18.00;99.90
52107;DHT22;38105;52.968;5.974;2023-07-22T15:31:48;18.10;99.90
52107;DHT22;38105;52.968;5.974;2023-07-22T15:34:13;18.20;99.90
52107;DHT22;38105;52.968;5.974;2023-07-22T15:36:39;18.20;99.90